createdAt,value
2018-11-26T00:00:05.138Z,56.70
2018-11-26T00:02:31.396Z,56.70
2018-11-26T00:04:57.726Z,56.70
2018-11-26T00:07:23.964Z,56.80
2018-11-26T00:09:50.424Z,56.70
2018-11-26T00:12:16.712Z,56.70
2018-11-26T00:14:43.678Z,56.70
2018-11-26T00:17:09.939Z,56.70
2018-11-26T00:19:36.167Z,56.70
2018-11-26T00:22:02.432Z,56.70
2018-11-26T00:24:29.419Z,56.70
2018-11-26T00:26:55.678Z,56.70
2018-11-26T00:29:22.665Z,56.70
2018-11-26T00:31:49.339Z,56.70
2018-11-26T00:34:15.600Z,56.60
2018-11-26T00:36:42.587Z,56.60
2018-11-26T00:39:08.904Z,56.60
2018-11-26T00:41:35.166Z,56.70
2018-11-26T00:44:01.434Z,56.60
2018-11-26T00:46:27.693Z,57.40
2018-11-26T00:48:53.948Z,57.10
2018-11-26T00:51:21.067Z,57.30
2018-11-26T00:53:47.687Z,56.70
2018-11-26T00:56:13.936Z,56.70
2018-11-26T00:58:40.174Z,57.10
2018-11-26T01:01:06.422Z,56.90
2018-11-26T01:03:32.707Z,56.70
2018-11-26T01:05:59.002Z,57.00
2018-11-26T01:08:25.222Z,57.00
2018-11-26T01:10:51.533Z,56.80
2018-11-26T01:13:17.766Z,57.50
2018-11-26T01:15:44.014Z,57.40
2018-11-26T01:18:11.278Z,56.60
2018-11-26T01:20:38.336Z,56.80
2018-11-26T01:23:04.618Z,56.70
2018-11-26T01:25:30.914Z,56.70
2018-11-26T01:27:57.179Z,57.30
2018-11-26T01:30:23.507Z,57.10
2018-11-26T01:32:49.739Z,56.60
2018-11-26T01:35:16.308Z,56.80
2018-11-26T01:37:42.575Z,57.20
2018-11-26T01:40:08.828Z,57.20
2018-11-26T01:42:35.095Z,57.20
2018-11-26T01:45:01.396Z,57.10
2018-11-26T01:47:27.619Z,57.20
2018-11-26T01:49:53.850Z,57.40
2018-11-26T01:52:20.400Z,57.50
2018-11-26T01:54:47.403Z,57.20
2018-11-26T01:57:13.610Z,57.20
2018-11-26T01:59:39.854Z,57.10
2018-11-26T02:02:06.762Z,57.20
2018-11-26T02:04:33.015Z,56.70
2018-11-26T02:06:59.250Z,56.80
2018-11-26T02:09:26.292Z,56.80
2018-11-26T02:11:52.518Z,56.80
2018-11-26T02:14:18.747Z,56.80
2018-11-26T02:16:45.001Z,56.80
2018-11-26T02:19:11.312Z,56.90
2018-11-26T02:21:37.602Z,57.50
2018-11-26T02:24:03.867Z,57.50
2018-11-26T02:26:30.165Z,57.30
2018-11-26T02:28:56.392Z,57.40
2018-11-26T02:31:22.648Z,57.60
2018-11-26T02:33:48.900Z,57.60
2018-11-26T02:36:15.155Z,57.70
2018-11-26T02:38:41.423Z,57.60
2018-11-26T02:41:08.132Z,58.20
2018-11-26T02:43:35.104Z,57.80
2018-11-26T02:46:01.358Z,57.80
2018-11-26T02:48:27.602Z,57.80
2018-11-26T02:50:53.879Z,58.00
2018-11-26T02:53:20.370Z,58.20
2018-11-26T02:55:46.626Z,58.10
2018-11-26T02:58:13.584Z,57.70
2018-11-26T03:00:39.856Z,57.60
2018-11-26T03:03:06.542Z,57.90
2018-11-26T03:05:32.780Z,57.50
2018-11-26T03:07:59.052Z,57.20
2018-11-26T03:10:25.260Z,57.30
2018-11-26T03:12:51.463Z,57.20
2018-11-26T03:15:17.738Z,57.30
2018-11-26T03:17:43.981Z,57.00
2018-11-26T03:20:11.007Z,57.60
2018-11-26T03:22:37.403Z,57.60
2018-11-26T03:25:03.675Z,57.80
2018-11-26T03:27:30.202Z,58.00
2018-11-26T03:29:56.441Z,58.10
2018-11-26T03:32:30.875Z,58.00
2018-11-26T03:34:57.848Z,58.10
2018-11-26T03:37:24.082Z,57.90
2018-11-26T03:39:51.133Z,58.30
2018-11-26T03:42:17.503Z,58.30
2018-11-26T03:44:43.771Z,57.90
2018-11-26T03:47:11.107Z,58.20
2018-11-26T03:49:38.088Z,58.20
2018-11-26T03:52:04.316Z,59.00
2018-11-26T03:54:30.559Z,58.40
2018-11-26T03:56:56.851Z,58.40
2018-11-26T03:59:23.088Z,58.30
2018-11-26T04:01:49.687Z,58.50
2018-11-26T04:04:15.987Z,58.20
2018-11-26T04:06:42.252Z,58.60
2018-11-26T04:09:09.252Z,58.40
2018-11-26T04:11:35.502Z,58.40
2018-11-26T04:14:01.995Z,58.80
2018-11-26T04:16:28.211Z,58.70
2018-11-26T04:18:54.446Z,58.80
2018-11-26T04:21:20.759Z,58.10
2018-11-26T04:23:46.991Z,58.50
2018-11-26T04:26:13.956Z,58.40
2018-11-26T04:28:40.191Z,58.40
2018-11-26T04:31:06.932Z,58.30
2018-11-26T04:33:33.184Z,58.00
2018-11-26T04:35:59.379Z,58.00
2018-11-26T04:38:25.980Z,57.90
2018-11-26T04:40:52.951Z,57.70
2018-11-26T04:43:19.189Z,57.70
2018-11-26T04:45:47.130Z,57.80
2018-11-26T04:48:14.175Z,58.20
2018-11-26T04:50:41.215Z,57.70
2018-11-26T04:53:08.184Z,57.30
2018-11-26T04:55:34.399Z,57.30
2018-11-26T04:58:00.717Z,57.30
2018-11-26T05:00:26.976Z,57.60
2018-11-26T05:02:53.199Z,56.90
2018-11-26T05:05:19.520Z,56.90
2018-11-26T05:07:45.744Z,57.70
2018-11-26T05:10:11.987Z,56.90
2018-11-26T05:12:38.695Z,56.90
2018-11-26T05:15:05.097Z,56.90
2018-11-26T05:17:31.327Z,56.80
2018-11-26T05:19:57.561Z,56.80
2018-11-26T05:22:23.917Z,57.40
2018-11-26T05:24:50.364Z,56.90
2018-11-26T05:27:16.614Z,56.80
2018-11-26T05:29:46.063Z,57.20
2018-11-26T05:32:13.051Z,57.30
2018-11-26T05:34:39.299Z,57.30
2018-11-26T05:37:05.572Z,57.20
2018-11-26T05:39:32.550Z,56.80
2018-11-26T05:41:58.751Z,56.80
2018-11-26T05:44:24.980Z,56.90
2018-11-26T05:46:51.975Z,56.10
2018-11-26T05:49:18.216Z,56.10
2018-11-26T05:51:44.455Z,56.60
2018-11-26T05:54:10.791Z,56.70
2018-11-26T05:56:37.035Z,56.30
2018-11-26T05:59:03.294Z,56.10
2018-11-26T06:01:29.562Z,56.00
2018-11-26T06:03:56.555Z,56.70
2018-11-26T06:06:22.768Z,56.80
2018-11-26T06:08:49.062Z,56.70
2018-11-26T06:11:15.334Z,56.60
2018-11-26T06:13:41.539Z,56.60
2018-11-26T06:16:08.547Z,56.60
2018-11-26T06:18:34.809Z,56.60
2018-11-26T06:21:01.840Z,55.40
2018-11-26T06:23:28.089Z,55.40
2018-11-26T06:25:55.055Z,55.70
2018-11-26T06:28:21.271Z,55.70
2018-11-26T06:30:48.244Z,55.70
2018-11-26T06:33:14.455Z,55.70
2018-11-26T06:35:40.696Z,56.00
2018-11-26T06:38:06.934Z,55.80
2018-11-26T06:40:33.202Z,55.70
2018-11-26T06:42:59.452Z,56.00
2018-11-26T06:45:25.709Z,55.60
2018-11-26T06:47:51.935Z,55.90
2018-11-26T06:50:18.212Z,56.10
2018-11-26T06:52:45.209Z,55.30
2018-11-26T06:55:11.422Z,55.20
2018-11-26T06:57:37.676Z,54.80
2018-11-26T07:00:03.954Z,55.00
2018-11-26T07:02:30.927Z,54.50
2018-11-26T07:04:57.152Z,54.50
2018-11-26T07:07:23.410Z,54.60
2018-11-26T07:09:50.451Z,54.10
2018-11-26T07:12:16.703Z,54.10
2018-11-26T07:14:42.935Z,54.10
2018-11-26T07:17:09.219Z,54.10
2018-11-26T07:19:35.460Z,54.30
2018-11-26T07:22:01.745Z,54.10
2018-11-26T07:24:28.691Z,54.10
2018-11-26T07:26:54.985Z,53.90
2018-11-26T07:29:24.293Z,54.20
2018-11-26T07:31:48.216Z,53.10
2018-11-26T07:34:14.459Z,53.10
2018-11-26T07:36:40.691Z,52.60
2018-11-26T07:39:06.954Z,53.30
2018-11-26T07:41:33.933Z,53.50
2018-11-26T07:44:00.323Z,53.50
2018-11-26T07:46:26.584Z,53.90
2018-11-26T07:48:52.820Z,53.40
2018-11-26T07:51:19.039Z,52.60
2018-11-26T07:53:46.050Z,52.70
2018-11-26T07:56:13.006Z,52.70
2018-11-26T07:58:38.525Z,53.10
2018-11-26T08:01:05.760Z,53.00
2018-11-26T08:03:31.995Z,53.10
2018-11-26T08:05:58.968Z,52.20
2018-11-26T08:08:25.216Z,52.20
2018-11-26T08:10:51.466Z,52.60
2018-11-26T08:13:17.717Z,51.30
2018-11-26T08:15:43.964Z,51.60
2018-11-26T08:18:10.949Z,51.50
2018-11-26T08:20:37.228Z,51.50
2018-11-26T08:23:04.215Z,52.00
2018-11-26T08:25:30.467Z,52.00
2018-11-26T08:27:56.753Z,51.60
2018-11-26T08:30:23.005Z,52.90
2018-11-26T08:32:49.230Z,52.60
2018-11-26T08:35:15.648Z,52.70
2018-11-26T08:37:41.895Z,52.90
2018-11-26T08:40:08.138Z,52.80
2018-11-26T08:42:34.390Z,53.20
2018-11-26T08:45:00.735Z,52.80
2018-11-26T08:47:27.045Z,52.60
2018-11-26T08:49:53.594Z,53.40
2018-11-26T08:52:20.570Z,52.60
2018-11-26T08:54:46.803Z,52.60
2018-11-26T08:57:13.110Z,52.80
2018-11-26T08:59:39.648Z,52.10
2018-11-26T09:02:05.987Z,52.10
2018-11-26T09:04:32.274Z,52.20
2018-11-26T09:06:58.542Z,52.10
2018-11-26T09:09:24.804Z,52.30
2018-11-26T09:11:51.029Z,52.60
2018-11-26T09:14:17.256Z,52.20
2018-11-26T09:16:43.487Z,51.80
2018-11-26T09:19:09.720Z,51.30
2018-11-26T09:21:36.908Z,52.20
2018-11-26T09:24:03.203Z,52.20
2018-11-26T09:26:29.414Z,51.90
2018-11-26T09:28:55.662Z,52.10
2018-11-26T09:31:22.691Z,52.20
2018-11-26T09:33:48.915Z,52.30
2018-11-26T09:36:15.171Z,52.60
2018-11-26T09:38:41.479Z,52.30
2018-11-26T09:41:07.730Z,51.80
2018-11-26T09:43:33.947Z,52.10
2018-11-26T09:46:00.258Z,52.00
2018-11-26T09:48:26.503Z,51.60
2018-11-26T09:50:52.746Z,51.70
2018-11-26T09:53:18.982Z,51.90
2018-11-26T09:55:45.974Z,52.00
2018-11-26T09:58:12.244Z,52.00
2018-11-26T10:00:39.235Z,51.60
2018-11-26T10:03:05.487Z,51.10
2018-11-26T10:05:32.059Z,51.10
2018-11-26T10:07:58.326Z,51.40
2018-11-26T10:10:24.594Z,51.90
2018-11-26T10:12:50.903Z,51.30
2018-11-26T10:15:17.176Z,51.10
2018-11-26T10:17:44.213Z,51.40
2018-11-26T10:20:10.552Z,51.30
2018-11-26T10:22:36.930Z,51.60
2018-11-26T10:25:05.944Z,51.30
2018-11-26T10:27:30.187Z,51.30
2018-11-26T10:29:57.255Z,51.30
2018-11-26T10:32:24.059Z,51.30
2018-11-26T10:34:50.350Z,51.40
2018-11-26T10:37:16.639Z,51.50
2018-11-26T10:39:42.891Z,51.50
2018-11-26T10:42:09.128Z,52.10
2018-11-26T10:44:35.394Z,51.90
2018-11-26T10:47:01.952Z,51.70
2018-11-26T10:49:28.411Z,51.90
2018-11-26T10:51:54.666Z,51.50
2018-11-26T10:54:21.953Z,51.50
2018-11-26T10:56:48.225Z,51.40
2018-11-26T10:59:14.458Z,51.90
2018-11-26T11:01:40.730Z,52.00
2018-11-26T11:04:07.731Z,52.00
2018-11-26T11:06:33.994Z,52.00
2018-11-26T11:09:00.271Z,52.00
2018-11-26T11:11:26.567Z,51.60
2018-11-26T11:13:52.862Z,51.90
2018-11-26T11:16:19.161Z,52.50
2018-11-26T11:18:45.469Z,52.20
2018-11-26T11:21:12.619Z,52.50
2018-11-26T11:23:38.938Z,52.40
2018-11-26T11:26:05.287Z,52.00
2018-11-26T11:28:31.541Z,52.40
2018-11-26T11:30:57.892Z,52.40
2018-11-26T11:35:52.385Z,53.90
2018-11-26T11:38:18.680Z,53.80
2018-11-26T11:40:44.931Z,53.90
2018-11-26T11:43:11.295Z,54.00
2018-11-26T11:45:37.560Z,53.50
2018-11-26T11:48:03.832Z,53.80
2018-11-26T11:50:30.101Z,54.80
2018-11-26T11:52:56.348Z,55.00
2018-11-26T11:55:22.592Z,55.80
2018-11-26T11:57:48.897Z,55.60
2018-11-26T12:00:15.207Z,55.50
2018-11-26T12:02:41.496Z,56.00
2018-11-26T12:05:07.792Z,55.80
2018-11-26T12:07:34.064Z,56.90
2018-11-26T12:10:00.320Z,56.00
2018-11-26T12:12:26.781Z,56.00
2018-11-26T12:14:53.004Z,57.10
2018-11-26T12:17:19.261Z,57.20
2018-11-26T12:19:45.565Z,57.20
2018-11-26T12:22:11.837Z,57.80
2018-11-26T12:24:38.060Z,57.50
2018-11-26T12:27:05.102Z,58.80
2018-11-26T12:29:31.345Z,58.70
2018-11-26T12:31:57.653Z,59.10
2018-11-26T12:34:24.043Z,58.90
2018-11-26T12:36:50.335Z,59.70
2018-11-26T12:39:16.577Z,60.00
2018-11-26T12:41:43.567Z,60.20
2018-11-26T12:44:09.841Z,60.20
2018-11-26T12:46:37.106Z,60.80
2018-11-26T12:49:04.105Z,61.20
2018-11-26T12:51:30.351Z,61.20
2018-11-26T12:53:57.360Z,61.10
2018-11-26T12:56:23.632Z,61.00
2018-11-26T12:58:49.865Z,61.50
2018-11-26T13:01:16.213Z,61.20
2018-11-26T13:03:43.178Z,60.40
2018-11-26T13:06:10.243Z,61.10
2018-11-26T13:08:36.628Z,61.10
2018-11-26T13:11:02.921Z,60.90
2018-11-26T13:13:29.952Z,60.90
2018-11-26T13:15:56.300Z,60.80
2018-11-26T13:18:22.562Z,61.20
2018-11-26T13:20:49.104Z,61.00
2018-11-26T13:23:15.660Z,61.40
2018-11-26T13:25:42.402Z,62.40
2018-11-26T13:28:09.346Z,61.90
2018-11-26T13:30:35.638Z,61.90
2018-11-26T13:33:02.716Z,62.20
2018-11-26T13:35:28.997Z,62.20
2018-11-26T13:37:55.967Z,62.20
2018-11-26T13:40:22.253Z,62.20
2018-11-26T13:42:48.510Z,62.40
2018-11-26T13:45:15.566Z,62.80
2018-11-26T13:47:42.664Z,63.00
2018-11-26T13:50:08.939Z,62.90
2018-11-26T13:52:35.952Z,63.30
2018-11-26T13:55:02.212Z,63.30
2018-11-26T13:57:29.289Z,62.90
2018-11-26T13:59:55.561Z,62.90
2018-11-26T14:02:21.812Z,63.10
2018-11-26T14:04:48.077Z,63.20
2018-11-26T14:07:14.352Z,63.50
2018-11-26T14:09:40.603Z,63.20
2018-11-26T14:12:06.857Z,63.10
2018-11-26T14:14:33.123Z,63.20
2018-11-26T14:16:59.400Z,63.40
2018-11-26T14:19:25.650Z,63.10
2018-11-26T14:21:52.028Z,63.10
2018-11-26T14:24:18.297Z,63.50
2018-11-26T14:26:44.789Z,63.40
2018-11-26T14:29:11.035Z,63.30
2018-11-26T14:31:38.020Z,63.60
2018-11-26T14:34:04.309Z,63.60
2018-11-26T14:36:30.557Z,63.50
2018-11-26T14:38:56.883Z,63.60
2018-11-26T14:41:23.186Z,63.60
2018-11-26T14:43:50.209Z,63.50
2018-11-26T14:46:17.248Z,63.70
2018-11-26T14:48:43.536Z,63.70
2018-11-26T14:51:09.817Z,63.50
2018-11-26T14:53:36.818Z,63.80
2018-11-26T14:56:03.133Z,63.70
2018-11-26T14:58:29.437Z,63.80
2018-11-26T15:00:56.415Z,63.60
2018-11-26T15:03:23.029Z,63.60
2018-11-26T15:05:49.540Z,63.80
2018-11-26T15:08:16.547Z,64.00
2018-11-26T15:10:42.823Z,63.50
2018-11-26T15:13:09.119Z,63.00
2018-11-26T15:15:36.189Z,62.90
2018-11-26T15:18:03.264Z,63.20
2018-11-26T15:20:29.629Z,63.20
2018-11-26T15:22:55.914Z,63.20
2018-11-26T15:25:22.257Z,64.10
2018-11-26T15:27:48.760Z,63.80
2018-11-26T15:30:15.090Z,63.70
2018-11-26T15:32:42.072Z,63.60
2018-11-26T15:35:08.357Z,63.50
2018-11-26T15:37:35.397Z,64.00
2018-11-26T15:40:01.695Z,63.90
2018-11-26T15:42:28.233Z,64.00
2018-11-26T15:44:54.480Z,64.20
2018-11-26T15:47:20.785Z,64.30
2018-11-26T15:49:47.308Z,64.10
2018-11-26T15:52:13.588Z,64.10
2018-11-26T15:54:40.626Z,64.50
2018-11-26T15:57:06.886Z,64.50
2018-11-26T15:59:33.880Z,64.20
2018-11-26T16:02:00.532Z,64.20
2018-11-26T16:04:26.914Z,64.20
2018-11-26T16:06:53.187Z,64.30
2018-11-26T16:09:20.215Z,64.30
2018-11-26T16:11:46.498Z,64.40
2018-11-26T16:14:13.500Z,64.40
2018-11-26T16:16:39.752Z,64.40
2018-11-26T16:19:06.116Z,64.50
2018-11-26T16:21:33.179Z,64.60
2018-11-26T16:23:59.423Z,64.50
2018-11-26T16:26:25.649Z,64.40
2018-11-26T16:28:51.874Z,64.40
2018-11-26T16:31:18.169Z,64.40
2018-11-26T16:33:45.121Z,64.70
2018-11-26T16:36:11.353Z,64.60
2018-11-26T16:38:37.888Z,64.60
2018-11-26T16:41:04.159Z,64.40
2018-11-26T16:43:30.416Z,64.60
2018-11-26T16:45:57.392Z,64.50
2018-11-26T16:48:23.685Z,64.50
2018-11-26T16:50:49.952Z,64.70
2018-11-26T16:53:19.369Z,64.60
2018-11-26T16:55:42.525Z,64.60
2018-11-26T16:58:08.776Z,64.50
2018-11-26T17:00:35.065Z,64.50
2018-11-26T17:03:01.322Z,64.60
2018-11-26T17:05:27.620Z,64.70
2018-11-26T17:07:53.907Z,64.60
2018-11-26T17:10:20.178Z,64.70
2018-11-26T17:12:46.869Z,65.20
2018-11-26T17:15:13.152Z,64.70
2018-11-26T17:17:39.411Z,64.40
2018-11-26T17:20:06.054Z,64.90
2018-11-26T17:22:32.444Z,64.40
2018-11-26T17:24:58.752Z,64.60
2018-11-26T17:27:25.856Z,64.90
2018-11-26T17:29:52.165Z,64.90
2018-11-26T17:32:18.451Z,64.80
2018-11-26T17:34:45.512Z,64.90
2018-11-26T17:37:11.817Z,64.90
2018-11-26T17:39:38.122Z,65.30
2018-11-26T17:42:04.467Z,64.80
2018-11-26T17:44:30.853Z,64.80
2018-11-26T17:46:57.421Z,64.90
2018-11-26T17:49:23.752Z,64.80
2018-11-26T17:51:50.164Z,64.90
2018-11-26T17:54:17.305Z,64.90
2018-11-26T17:56:43.685Z,64.80
2018-11-26T17:59:09.959Z,64.90
2018-11-26T18:01:36.432Z,64.90
2018-11-26T18:04:03.043Z,64.60
2018-11-26T18:06:29.314Z,64.70
2018-11-26T18:08:56.372Z,64.90
2018-11-26T18:11:23.635Z,64.80
2018-11-26T18:13:50.816Z,65.00
2018-11-26T18:16:17.105Z,65.00
2018-11-26T18:18:43.730Z,64.90
2018-11-26T18:21:10.855Z,64.90
2018-11-26T18:23:37.137Z,64.90
2018-11-26T18:26:03.736Z,64.70
2018-11-26T18:28:30.082Z,64.80
2018-11-26T18:30:56.448Z,64.60
2018-11-26T18:33:23.049Z,64.90
2018-11-26T18:35:49.317Z,64.70
2018-11-26T18:38:15.708Z,64.70
2018-11-26T18:40:42.151Z,64.70
2018-11-26T18:43:08.468Z,65.00
2018-11-26T18:45:35.575Z,65.00
2018-11-26T18:48:01.846Z,64.90
2018-11-26T18:50:28.150Z,65.00
2018-11-26T18:52:54.439Z,64.90
2018-11-26T18:55:20.918Z,64.90
2018-11-26T18:57:47.922Z,64.90
2018-11-26T19:00:15.140Z,64.80
2018-11-26T19:02:41.824Z,64.70
2018-11-26T19:05:07.865Z,65.00
2018-11-26T19:07:34.513Z,64.90
2018-11-26T19:10:01.525Z,64.80
2018-11-26T19:12:27.817Z,64.80
2018-11-26T19:14:54.096Z,64.80
2018-11-26T19:17:20.508Z,64.80
2018-11-26T19:19:47.068Z,65.00
2018-11-26T19:22:13.477Z,65.00
2018-11-26T19:24:41.204Z,65.00
2018-11-26T19:27:07.544Z,65.00
2018-11-26T19:29:33.835Z,65.10
2018-11-26T19:32:00.917Z,65.20
2018-11-26T19:34:27.191Z,65.20
2018-11-26T19:36:53.507Z,65.30
2018-11-26T19:39:20.605Z,65.20
2018-11-26T19:41:46.880Z,65.10
2018-11-26T19:44:13.164Z,65.30
2018-11-26T19:46:39.452Z,65.40
2018-11-26T19:49:05.872Z,65.40
2018-11-26T19:51:32.149Z,65.40
2018-11-26T19:53:58.436Z,65.30
2018-11-26T19:56:24.970Z,65.30
2018-11-26T19:58:51.313Z,65.40
2018-11-26T20:01:18.319Z,65.50
2018-11-26T20:03:44.584Z,65.50
2018-11-26T20:06:10.904Z,65.30
2018-11-26T20:08:37.188Z,65.20
2018-11-26T20:11:03.556Z,65.40
2018-11-26T20:13:30.705Z,65.40
2018-11-26T20:15:56.982Z,65.30
2018-11-26T20:18:28.341Z,65.30
2018-11-26T20:20:49.658Z,65.30
2018-11-26T20:23:15.943Z,65.30
2018-11-26T20:25:42.965Z,65.40
2018-11-26T20:28:10.081Z,65.50
2018-11-26T20:30:36.455Z,65.50
2018-11-26T20:33:02.737Z,65.50
2018-11-26T20:35:28.998Z,65.60
2018-11-26T20:37:55.351Z,65.50
2018-11-26T20:40:22.362Z,65.50
2018-11-26T20:42:48.625Z,65.50
2018-11-26T20:45:15.712Z,65.60
2018-11-26T20:47:41.987Z,65.50
2018-11-26T20:50:08.259Z,65.70
2018-11-26T20:52:34.842Z,65.60
2018-11-26T20:55:01.164Z,65.60
2018-11-26T20:57:27.411Z,65.40
2018-11-26T20:59:54.461Z,65.40
2018-11-26T21:02:20.778Z,65.30
2018-11-26T21:04:47.703Z,65.50
2018-11-26T21:07:14.038Z,65.30
2018-11-26T21:09:40.394Z,65.50
2018-11-26T21:12:06.666Z,65.30
2018-11-26T21:14:33.029Z,65.00
2018-11-26T21:16:59.335Z,64.90
2018-11-26T21:19:25.732Z,64.80
2018-11-26T21:21:52.208Z,64.90
2018-11-26T21:24:18.497Z,64.50
2018-11-26T21:26:45.531Z,64.40
2018-11-26T21:29:11.824Z,64.30
2018-11-26T21:31:38.188Z,64.60
2018-11-26T21:34:04.470Z,64.60
2018-11-26T21:36:31.657Z,64.70
2018-11-26T21:38:57.133Z,64.80
2018-11-26T21:41:23.379Z,64.70
2018-11-26T21:43:49.658Z,64.80
2018-11-26T21:46:16.678Z,65.00
2018-11-26T21:48:43.683Z,65.30
2018-11-26T21:51:10.176Z,64.90
2018-11-26T21:53:36.436Z,64.90
2018-11-26T21:56:02.755Z,65.10
2018-11-26T21:58:29.050Z,65.00
2018-11-26T22:00:55.372Z,65.00
2018-11-26T22:03:22.410Z,65.20
2018-11-26T22:05:48.680Z,65.20
2018-11-26T22:08:14.958Z,65.90
2018-11-26T22:10:41.226Z,65.40
2018-11-26T22:13:07.507Z,65.30
2018-11-26T22:15:34.067Z,65.40
2018-11-26T22:18:00.329Z,65.20
2018-11-26T22:20:26.633Z,65.30
2018-11-26T22:22:53.664Z,65.40
2018-11-26T22:25:20.002Z,65.40
2018-11-26T22:27:47.032Z,65.40
2018-11-26T22:30:13.325Z,65.30
2018-11-26T22:32:39.587Z,65.20
2018-11-26T22:35:05.860Z,65.50
2018-11-26T22:37:32.965Z,65.40
2018-11-26T22:39:59.347Z,65.40
2018-11-26T22:42:25.604Z,65.40
2018-11-26T22:44:52.652Z,65.40
2018-11-26T22:47:19.723Z,65.40
2018-11-26T22:49:46.909Z,65.20
2018-11-26T22:52:13.175Z,65.20
2018-11-26T22:54:39.404Z,65.20
2018-11-26T22:57:05.665Z,65.10
2018-11-26T22:59:31.937Z,65.00
2018-11-26T23:01:58.212Z,65.10
2018-11-26T23:04:24.472Z,65.20
2018-11-26T23:06:51.476Z,65.10
2018-11-26T23:09:17.727Z,65.10
2018-11-26T23:11:44.726Z,65.20
2018-11-26T23:14:11.080Z,65.20
2018-11-26T23:16:37.361Z,65.20
2018-11-26T23:19:03.641Z,65.40
2018-11-26T23:21:30.733Z,65.70
2018-11-26T23:23:56.992Z,65.40
2018-11-26T23:26:23.513Z,65.50
2018-11-26T23:28:49.771Z,65.40
2018-11-26T23:31:16.020Z,65.50
2018-11-26T23:33:42.581Z,65.40
2018-11-26T23:36:08.828Z,65.40
2018-11-26T23:38:35.076Z,64.80
2018-11-26T23:41:01.360Z,64.60
2018-11-26T23:43:28.352Z,64.20
2018-11-26T23:45:54.790Z,64.20
2018-11-26T23:48:21.087Z,64.30
2018-11-26T23:50:47.365Z,64.00
2018-11-26T23:53:13.614Z,64.20
2018-11-26T23:55:40.616Z,64.40
2018-11-26T23:58:06.864Z,64.30
